createdAt,value
2018-05-18T00:00:18.387Z,91.98
2018-05-18T00:02:47.252Z,92.06
2018-05-18T00:05:16.010Z,92.06
2018-05-18T00:07:45.415Z,92.21
2018-05-18T00:10:13.959Z,92.40
2018-05-18T00:12:43.714Z,92.57
2018-05-18T00:15:12.937Z,92.68
2018-05-18T00:17:42.210Z,92.85
2018-05-18T00:20:11.232Z,92.98
2018-05-18T00:22:40.245Z,93.07
2018-05-18T00:25:08.946Z,93.16
2018-05-18T00:27:37.857Z,93.19
2018-05-18T00:30:06.565Z,93.09
2018-05-18T00:32:35.830Z,93.00
2018-05-18T00:35:04.973Z,92.93
2018-05-18T00:37:34.429Z,92.79
2018-05-18T00:40:04.003Z,92.69
2018-05-18T00:42:33.033Z,92.56
2018-05-18T00:45:02.870Z,92.58
2018-05-18T00:47:33.044Z,92.57
2018-05-18T00:50:03.219Z,92.70
2018-05-18T00:52:32.051Z,92.92
2018-05-18T00:55:01.359Z,92.96
2018-05-18T00:57:31.001Z,93.02
2018-05-18T00:59:59.838Z,93.22
2018-05-18T01:02:28.601Z,93.30
2018-05-18T01:04:58.180Z,93.38
2018-05-18T01:07:26.959Z,93.21
2018-05-18T01:09:56.798Z,93.07
2018-05-18T01:12:27.281Z,93.01
2018-05-18T01:14:56.514Z,93.07
2018-05-18T01:17:25.321Z,93.03
2018-05-18T01:19:54.056Z,92.98
2018-05-18T01:22:22.931Z,92.92
2018-05-18T01:24:52.484Z,92.90
2018-05-18T01:27:21.372Z,92.94
2018-05-18T01:29:51.075Z,92.89
2018-05-18T01:32:20.249Z,92.74
2018-05-18T01:34:49.296Z,92.62
2018-05-18T01:37:18.961Z,92.55
2018-05-18T01:39:49.739Z,92.62
2018-05-18T01:42:18.978Z,92.80
2018-05-18T01:44:48.774Z,92.92
2018-05-18T01:47:17.358Z,93.19
2018-05-18T01:49:46.067Z,93.50
2018-05-18T01:52:15.003Z,93.49
2018-05-18T01:54:43.657Z,93.67
2018-05-18T01:57:13.243Z,93.78
2018-05-18T01:59:41.972Z,93.82
2018-05-18T02:02:12.341Z,93.66
2018-05-18T02:04:41.210Z,94.01
2018-05-18T02:07:10.163Z,94.10
2018-05-18T02:09:40.202Z,94.21
2018-05-18T02:12:09.484Z,94.32
2018-05-18T02:14:38.156Z,94.53
2018-05-18T02:17:06.777Z,94.73
2018-05-18T02:19:35.452Z,94.84
2018-05-18T02:22:05.215Z,94.81
2018-05-18T02:24:33.825Z,94.72
2018-05-18T02:27:02.417Z,94.48
2018-05-18T02:29:31.240Z,94.32
2018-05-18T02:31:59.948Z,94.12
2018-05-18T02:34:28.694Z,93.81
2018-05-18T02:36:57.449Z,93.19
2018-05-18T02:39:26.686Z,92.72
2018-05-18T02:41:56.756Z,92.75
2018-05-18T02:44:25.557Z,92.60
2018-05-18T02:46:54.412Z,91.90
2018-05-18T02:49:23.963Z,91.48
2018-05-18T02:51:52.792Z,91.46
2018-05-18T02:54:21.380Z,91.51
2018-05-18T02:56:50.096Z,91.89
2018-05-18T02:59:18.912Z,91.99
2018-05-18T03:01:48.005Z,92.05
2018-05-18T03:04:16.853Z,92.03
2018-05-18T03:06:45.366Z,92.18
2018-05-18T03:09:14.141Z,91.82
2018-05-18T03:11:43.298Z,91.48
2018-05-18T03:14:12.579Z,91.40
2018-05-18T03:16:41.702Z,91.45
2018-05-18T03:19:10.417Z,91.37
2018-05-18T03:21:39.226Z,91.25
2018-05-18T03:24:08.036Z,91.32
2018-05-18T03:26:37.553Z,91.66
2018-05-18T03:29:06.294Z,92.00
2018-05-18T03:31:35.078Z,92.25
2018-05-18T03:34:03.883Z,92.43
2018-05-18T03:36:32.702Z,92.56
2018-05-18T03:39:01.298Z,92.58
2018-05-18T03:41:30.074Z,92.52
2018-05-18T03:44:00.415Z,92.54
2018-05-18T03:46:30.930Z,92.45
2018-05-18T03:48:59.470Z,92.58
2018-05-18T03:51:29.814Z,92.60
2018-05-18T03:54:00.717Z,92.60
2018-05-18T03:56:29.309Z,92.62
2018-05-18T03:58:58.028Z,92.71
2018-05-18T04:01:44.459Z,92.80
2018-05-18T04:04:30.923Z,92.79
2018-05-18T04:07:17.501Z,92.82
2018-05-18T04:09:47.118Z,92.76
2018-05-18T04:12:16.622Z,92.65
2018-05-18T04:14:45.461Z,92.66
2018-05-18T04:17:14.967Z,92.65
2018-05-18T04:19:43.735Z,92.64
2018-05-18T04:22:12.630Z,92.56
2018-05-18T04:24:41.765Z,92.23
2018-05-18T04:27:11.036Z,92.17
2018-05-18T04:29:40.317Z,92.11
2018-05-18T04:32:09.460Z,92.06
2018-05-18T04:34:39.875Z,91.88
2018-05-18T04:37:08.598Z,91.61
2018-05-18T04:39:37.912Z,91.41
2018-05-18T04:42:06.552Z,91.40
2018-05-18T04:44:35.201Z,91.39
2018-05-18T04:47:05.039Z,91.09
2018-05-18T04:49:33.858Z,90.57
2018-05-18T04:52:04.050Z,90.48
2018-05-18T04:54:32.841Z,90.42
2018-05-18T04:57:02.059Z,90.59
2018-05-18T04:59:32.141Z,90.42
2018-05-18T05:02:00.994Z,90.28
2018-05-18T05:04:29.535Z,90.00
2018-05-18T05:06:58.896Z,88.39
2018-05-18T05:09:28.475Z,88.40
2018-05-18T05:11:58.029Z,88.05
2018-05-18T05:14:27.502Z,88.00
2018-05-18T05:16:56.402Z,86.47
2018-05-18T05:19:25.190Z,85.49
2018-05-18T05:21:53.958Z,84.37
2018-05-18T05:24:23.538Z,83.82
2018-05-18T05:26:53.099Z,84.15
2018-05-18T05:29:22.869Z,84.42
2018-05-18T05:31:51.679Z,84.39
2018-05-18T05:34:21.801Z,85.01
2018-05-18T05:36:51.196Z,85.42
2018-05-18T05:39:20.635Z,85.09
2018-05-18T05:41:49.512Z,84.71
2018-05-18T05:44:18.189Z,83.34
2018-05-18T05:46:46.848Z,83.02
2018-05-18T05:49:16.132Z,81.42
2018-05-18T05:51:44.885Z,80.62
2018-05-18T05:54:13.653Z,79.45
2018-05-18T05:56:42.812Z,79.25
2018-05-18T05:59:12.431Z,79.11
2018-05-18T06:01:41.210Z,78.76
2018-05-18T06:04:10.127Z,77.32
2018-05-18T06:06:38.941Z,74.47
2018-05-18T06:09:07.470Z,74.46
2018-05-18T06:11:36.251Z,72.79
2018-05-18T06:14:05.153Z,74.08
2018-05-18T06:16:35.853Z,74.18
2018-05-18T06:19:04.930Z,73.21
2018-05-18T06:21:33.822Z,73.71
2018-05-18T06:24:03.876Z,74.40
2018-05-18T06:26:33.059Z,76.15
2018-05-18T06:29:03.391Z,76.43
2018-05-18T06:31:32.141Z,77.00
2018-05-18T06:34:00.997Z,75.22
2018-05-18T06:36:29.777Z,73.96
2018-05-18T06:38:58.471Z,69.75
2018-05-18T06:41:27.280Z,68.90
2018-05-18T06:43:56.034Z,67.82
2018-05-18T06:46:24.792Z,68.53
2018-05-18T06:48:53.621Z,66.44
2018-05-18T06:51:22.380Z,63.17
2018-05-18T06:53:51.882Z,60.77
2018-05-18T06:56:20.550Z,57.85
2018-05-18T06:58:50.715Z,56.69
2018-05-18T07:01:20.544Z,56.45
2018-05-18T07:03:49.343Z,55.29
2018-05-18T07:06:18.318Z,54.62
2018-05-18T07:08:47.866Z,52.92
2018-05-18T07:11:17.460Z,53.33
2018-05-18T07:13:47.028Z,52.58
2018-05-18T07:16:15.729Z,51.36
2018-05-18T07:18:44.533Z,51.07
2018-05-18T07:21:13.311Z,50.65
2018-05-18T07:23:42.790Z,50.10
2018-05-18T07:26:12.643Z,52.05
2018-05-18T07:28:42.149Z,49.21
2018-05-18T07:31:11.639Z,47.23
2018-05-18T07:33:41.387Z,48.03
2018-05-18T07:36:10.227Z,45.17
2018-05-18T07:38:39.075Z,45.06
2018-05-18T07:41:08.642Z,45.39
2018-05-18T07:43:37.314Z,45.56
2018-05-18T07:46:06.505Z,44.28
2018-05-18T07:48:36.405Z,42.85
2018-05-18T07:51:05.210Z,41.71
2018-05-18T07:53:34.228Z,41.41
2018-05-18T07:56:03.972Z,43.05
2018-05-18T07:58:33.075Z,42.15
2018-05-18T08:01:02.818Z,42.60
2018-05-18T08:03:31.928Z,41.37
2018-05-18T08:06:00.703Z,41.36
2018-05-18T08:08:30.272Z,41.00
2018-05-18T08:10:59.563Z,41.08
2018-05-18T08:13:29.110Z,39.76
2018-05-18T08:15:57.780Z,38.26
2018-05-18T08:18:27.305Z,38.06
2018-05-18T08:20:57.923Z,38.07
2018-05-18T08:23:42.558Z,39.72
2018-05-18T08:26:12.495Z,36.46
2018-05-18T08:28:58.962Z,36.78
2018-05-18T08:31:29.405Z,36.32
2018-05-18T08:33:59.383Z,37.72
2018-05-18T08:36:28.199Z,37.00
2018-05-18T08:38:57.011Z,37.66
2018-05-18T08:41:26.172Z,40.81
2018-05-18T08:43:56.265Z,43.97
2018-05-18T08:46:25.229Z,42.25
2018-05-18T08:48:54.497Z,44.71
2018-05-18T08:51:23.298Z,39.79
2018-05-18T08:53:52.263Z,36.36
2018-05-18T08:56:22.042Z,36.59
2018-05-18T08:58:52.430Z,36.68
2018-05-18T09:01:22.193Z,36.03
2018-05-18T09:03:51.836Z,38.22
2018-05-18T09:06:20.672Z,35.88
2018-05-18T09:08:49.886Z,35.87
2018-05-18T09:11:19.096Z,36.73
2018-05-18T09:13:49.167Z,34.80
2018-05-18T09:16:18.944Z,33.95
2018-05-18T09:18:48.491Z,34.74
2018-05-18T09:21:17.263Z,33.68
2018-05-18T09:23:46.843Z,33.12
2018-05-18T09:26:16.054Z,31.85
2018-05-18T09:28:45.704Z,35.81
2018-05-18T09:31:15.174Z,39.19
2018-05-18T09:33:45.868Z,37.31
2018-05-18T09:36:14.390Z,34.98
2018-05-18T09:38:43.272Z,39.31
2018-05-18T09:41:14.203Z,37.14
2018-05-18T09:43:43.985Z,40.83
2018-05-18T09:46:13.184Z,40.14
2018-05-18T09:48:42.708Z,31.71
2018-05-18T09:51:11.619Z,31.92
2018-05-18T09:53:40.957Z,29.93
2018-05-18T09:56:10.753Z,27.58
2018-05-18T09:58:39.997Z,27.58
2018-05-18T10:01:08.800Z,26.82
2018-05-18T10:03:37.659Z,27.72
2018-05-18T10:06:06.833Z,28.39
2018-05-18T10:08:35.533Z,27.25
2018-05-18T10:11:04.316Z,29.51
2018-05-18T10:13:33.820Z,30.21
2018-05-18T10:16:02.583Z,28.88
2018-05-18T10:18:32.043Z,28.64
2018-05-18T10:21:01.679Z,27.54
2018-05-18T10:23:30.842Z,25.81
2018-05-18T10:26:00.144Z,26.76
2018-05-18T10:28:30.763Z,27.96
2018-05-18T10:31:01.836Z,26.95
2018-05-18T10:33:30.687Z,28.19
2018-05-18T10:35:59.470Z,26.03
2018-05-18T10:38:29.042Z,24.01
2018-05-18T10:40:57.834Z,24.34
2018-05-18T10:43:26.844Z,25.83
2018-05-18T10:45:55.685Z,25.70
2018-05-18T10:48:24.437Z,25.05
2018-05-18T10:50:53.304Z,25.55
2018-05-18T10:53:22.727Z,26.72
2018-05-18T10:55:52.377Z,24.87
2018-05-18T10:58:22.425Z,22.97
2018-05-18T11:00:52.002Z,22.52
2018-05-18T11:03:20.803Z,22.34
2018-05-18T11:05:49.605Z,22.15
2018-05-18T11:08:19.164Z,22.63
2018-05-18T11:10:47.883Z,20.80
2018-05-18T11:13:17.981Z,19.75
2018-05-18T11:15:47.962Z,18.65
2018-05-18T11:18:17.093Z,19.44
2018-05-18T11:20:47.000Z,18.66
2018-05-18T11:23:18.163Z,19.30
2018-05-18T11:25:48.881Z,21.41
2018-05-18T11:28:18.354Z,23.05
2018-05-18T11:30:47.430Z,23.80
2018-05-18T11:33:16.654Z,22.41
2018-05-18T11:35:46.588Z,21.86
2018-05-18T11:38:16.239Z,21.38
2018-05-18T11:40:45.456Z,21.76
2018-05-18T11:43:15.959Z,22.18
2018-05-18T11:45:46.829Z,23.32
2018-05-18T11:48:17.008Z,22.76
2018-05-18T11:50:47.713Z,21.70
2018-05-18T11:53:17.317Z,23.54
2018-05-18T11:55:48.056Z,23.52
2018-05-18T11:58:18.655Z,22.65
2018-05-18T12:00:49.912Z,23.34
2018-05-18T12:03:19.490Z,23.71
2018-05-18T12:05:51.002Z,25.94
2018-05-18T12:08:22.098Z,27.28
2018-05-18T12:10:52.095Z,28.00
2018-05-18T12:13:21.270Z,26.64
2018-05-18T12:15:53.698Z,25.42
2018-05-18T12:18:24.960Z,25.20
2018-05-18T12:20:53.922Z,25.71
2018-05-18T12:23:23.110Z,24.93
2018-05-18T12:25:52.891Z,26.22
2018-05-18T12:28:22.355Z,26.72
2018-05-18T12:30:54.594Z,25.19
2018-05-18T12:33:26.114Z,26.02
2018-05-18T12:35:57.813Z,24.74
2018-05-18T12:38:30.027Z,23.63
2018-05-18T12:41:00.066Z,23.86
2018-05-18T12:43:29.177Z,22.73
2018-05-18T12:45:58.473Z,22.75
2018-05-18T12:48:28.493Z,23.64
2018-05-18T12:50:58.706Z,24.35
2018-05-18T12:53:29.389Z,24.06
2018-05-18T12:56:00.466Z,23.76
2018-05-18T12:58:29.485Z,23.35
2018-05-18T13:00:58.581Z,25.41
2018-05-18T13:03:28.468Z,25.20
2018-05-18T13:05:57.521Z,24.94
2018-05-18T13:08:26.226Z,26.80
2018-05-18T13:10:55.103Z,26.77
2018-05-18T13:13:23.988Z,25.98
2018-05-18T13:15:53.282Z,25.95
2018-05-18T13:18:22.546Z,25.52
2018-05-18T13:20:51.241Z,25.32
2018-05-18T13:23:19.989Z,25.03
2018-05-18T13:25:50.403Z,25.49
2018-05-18T13:28:19.597Z,25.70
2018-05-18T13:30:49.563Z,29.08
2018-05-18T13:33:18.368Z,30.19
2018-05-18T13:35:47.789Z,30.22
2018-05-18T13:38:16.904Z,30.29
2018-05-18T13:40:45.712Z,31.22
2018-05-18T13:43:14.730Z,32.39
2018-05-18T13:45:43.707Z,32.04
2018-05-18T13:48:13.953Z,30.75
2018-05-18T13:50:42.711Z,31.06
2018-05-18T13:53:11.434Z,30.49
2018-05-18T13:55:42.263Z,28.24
2018-05-18T13:58:11.912Z,28.89
2018-05-18T14:00:40.811Z,28.77
2018-05-18T14:03:10.093Z,28.78
2018-05-18T14:05:39.702Z,29.13
2018-05-18T14:08:09.344Z,27.52
2018-05-18T14:10:39.007Z,26.97
2018-05-18T14:13:07.695Z,26.87
2018-05-18T14:15:36.303Z,25.99
2018-05-18T14:18:06.371Z,25.62
2018-05-18T14:20:35.700Z,26.10
2018-05-18T14:23:04.814Z,26.67
2018-05-18T14:25:34.595Z,27.39
2018-05-18T14:28:05.402Z,29.46
2018-05-18T14:30:34.202Z,30.97
2018-05-18T14:33:03.913Z,33.30
2018-05-18T14:35:32.788Z,35.64
2018-05-18T14:38:03.450Z,36.02
2018-05-18T14:40:33.119Z,37.47
2018-05-18T14:43:01.996Z,37.92
2018-05-18T14:45:31.672Z,37.57
2018-05-18T14:48:02.334Z,37.16
2018-05-18T14:50:32.065Z,36.07
2018-05-18T14:53:01.750Z,36.30
2018-05-18T14:55:30.730Z,33.69
2018-05-18T14:58:01.295Z,32.89
2018-05-18T15:00:31.162Z,34.19
2018-05-18T15:03:01.174Z,32.42
2018-05-18T15:05:31.861Z,32.88
2018-05-18T15:08:01.445Z,30.80
2018-05-18T15:10:31.026Z,30.91
2018-05-18T15:12:59.835Z,30.25
2018-05-18T15:15:30.881Z,30.32
2018-05-18T15:18:00.158Z,30.00
2018-05-18T15:20:29.738Z,29.41
2018-05-18T15:22:59.204Z,29.80
2018-05-18T15:25:28.821Z,31.28
2018-05-18T15:27:57.903Z,31.11
2018-05-18T15:30:26.718Z,30.94
2018-05-18T15:32:59.238Z,31.06
2018-05-18T15:35:28.083Z,30.38
2018-05-18T15:37:56.828Z,30.30
2018-05-18T15:40:26.043Z,30.62
2018-05-18T15:42:54.790Z,30.98
2018-05-18T15:45:24.848Z,31.76
2018-05-18T15:47:55.852Z,31.19
2018-05-18T15:50:24.547Z,32.31
2018-05-18T15:52:53.254Z,33.70
2018-05-18T15:55:22.393Z,33.95
2018-05-18T15:57:51.330Z,33.59
2018-05-18T16:00:20.146Z,33.59
2018-05-18T16:02:49.855Z,33.76
2018-05-18T16:05:18.773Z,33.94
2018-05-18T16:07:48.777Z,34.26
2018-05-18T16:10:18.048Z,35.01
2018-05-18T16:12:48.548Z,36.02
2018-05-18T16:15:18.332Z,35.87
2018-05-18T16:17:51.440Z,36.40
2018-05-18T16:20:26.828Z,36.76
2018-05-18T16:22:56.452Z,36.95
2018-05-18T16:25:25.282Z,37.33
2018-05-18T16:27:54.376Z,37.15
2018-05-18T16:30:23.542Z,37.08
2018-05-18T16:32:53.134Z,37.60
2018-05-18T16:35:22.942Z,36.42
2018-05-18T16:37:53.011Z,36.94
2018-05-18T16:40:22.955Z,37.10
2018-05-18T16:42:52.495Z,36.82
2018-05-18T16:45:21.491Z,35.96
2018-05-18T16:47:51.932Z,36.86
2018-05-18T16:50:21.913Z,37.04
2018-05-18T16:52:50.962Z,36.13
2018-05-18T16:55:20.925Z,36.13
2018-05-18T16:57:50.337Z,36.33
2018-05-18T17:00:19.753Z,36.89
2018-05-18T17:02:50.289Z,38.44
2018-05-18T17:05:20.037Z,38.74
2018-05-18T17:07:48.624Z,38.92
2018-05-18T17:10:18.562Z,38.53
2018-05-18T17:12:47.471Z,39.13
2018-05-18T17:15:18.501Z,39.50
2018-05-18T17:17:47.529Z,39.91
2018-05-18T17:20:16.131Z,40.11
2018-05-18T17:22:46.072Z,40.30
2018-05-18T17:25:15.819Z,40.82
2018-05-18T17:27:45.715Z,41.30
2018-05-18T17:30:15.097Z,41.80
2018-05-18T17:32:44.033Z,42.11
2018-05-18T17:35:13.000Z,42.42
2018-05-18T17:37:41.844Z,42.90
2018-05-18T17:40:10.768Z,43.07
2018-05-18T17:42:39.755Z,43.49
2018-05-18T17:45:08.685Z,43.49
2018-05-18T17:47:37.489Z,43.95
2018-05-18T17:50:06.193Z,44.40
2018-05-18T17:52:34.984Z,44.31
2018-05-18T17:55:05.954Z,44.02
2018-05-18T17:57:34.980Z,43.63
2018-05-18T18:00:05.017Z,43.47
2018-05-18T18:02:34.183Z,44.12
2018-05-18T18:05:02.990Z,44.12
2018-05-18T18:07:31.876Z,44.32
2018-05-18T18:10:00.789Z,44.26
2018-05-18T18:12:30.564Z,44.01
2018-05-18T18:15:01.758Z,44.48
2018-05-18T18:17:31.212Z,44.72
2018-05-18T18:20:00.069Z,44.98
2018-05-18T18:22:30.719Z,45.79
2018-05-18T18:25:00.907Z,46.38
2018-05-18T18:27:31.419Z,47.61
2018-05-18T18:30:02.021Z,51.61
2018-05-18T18:32:32.224Z,52.91
2018-05-18T18:35:01.848Z,53.49
2018-05-18T18:37:31.119Z,53.52
2018-05-18T18:39:59.890Z,54.25
2018-05-18T18:42:28.982Z,55.40
2018-05-18T18:44:58.698Z,56.66
2018-05-18T18:47:29.817Z,57.05
2018-05-18T18:49:58.824Z,57.36
2018-05-18T18:52:28.460Z,57.76
2018-05-18T18:54:58.526Z,58.41
2018-05-18T18:57:27.976Z,59.03
2018-05-18T18:59:58.999Z,59.26
2018-05-18T19:02:27.918Z,59.52
2018-05-18T19:04:58.748Z,62.02
2018-05-18T19:07:27.705Z,62.64
2018-05-18T19:09:58.683Z,63.03
2018-05-18T19:12:27.828Z,63.96
2018-05-18T19:14:57.763Z,65.20
2018-05-18T19:17:27.752Z,65.58
2018-05-18T19:19:57.709Z,65.40
2018-05-18T19:22:26.557Z,65.63
2018-05-18T19:24:55.606Z,65.82
2018-05-18T19:27:25.865Z,65.89
2018-05-18T19:29:55.699Z,66.47
2018-05-18T19:32:25.013Z,66.02
2018-05-18T19:34:55.983Z,66.42
2018-05-18T19:37:25.825Z,66.66
2018-05-18T19:39:56.089Z,66.72
2018-05-18T19:42:26.667Z,66.33
2018-05-18T19:44:57.178Z,66.64
2018-05-18T19:47:26.740Z,68.63
2018-05-18T19:49:57.619Z,69.41
2018-05-18T19:52:28.640Z,71.63
2018-05-18T19:54:58.475Z,71.63
2018-05-18T19:57:29.281Z,71.58
2018-05-18T20:00:02.498Z,71.88
2018-05-18T20:02:35.342Z,72.18
2018-05-18T20:05:06.293Z,71.76
2018-05-18T20:07:36.317Z,71.96
2018-05-18T20:10:05.809Z,72.04
2018-05-18T20:12:37.047Z,71.43
2018-05-18T20:15:07.346Z,71.55
2018-05-18T20:17:42.120Z,71.82
2018-05-18T20:20:11.012Z,71.88
2018-05-18T20:22:42.399Z,71.46
2018-05-18T20:25:13.616Z,71.10
2018-05-18T20:27:43.719Z,70.97
2018-05-18T20:30:14.467Z,71.02
2018-05-18T20:32:43.650Z,71.61
2018-05-18T20:35:14.057Z,71.75
2018-05-18T20:37:42.785Z,71.59
2018-05-18T20:40:11.845Z,72.12
2018-05-18T20:42:42.297Z,72.94
2018-05-18T20:45:11.924Z,72.95
2018-05-18T20:47:41.430Z,72.34
2018-05-18T20:50:11.541Z,72.39
2018-05-18T20:52:40.464Z,72.56
2018-05-18T20:55:09.481Z,73.15
2018-05-18T20:57:38.230Z,73.47
2018-05-18T21:00:06.920Z,73.24
2018-05-18T21:02:35.464Z,73.44
2018-05-18T21:05:04.228Z,73.47
2018-05-18T21:07:33.640Z,73.26
2018-05-18T21:10:02.552Z,73.40
2018-05-18T21:12:31.220Z,73.53
2018-05-18T21:15:01.200Z,73.42
2018-05-18T21:17:30.927Z,73.43
2018-05-18T21:20:00.307Z,73.48
2018-05-18T21:22:30.043Z,73.42
2018-05-18T21:25:00.704Z,73.14
2018-05-18T21:27:30.473Z,73.00
2018-05-18T21:29:59.481Z,72.95
2018-05-18T21:32:28.396Z,72.79
2018-05-18T21:34:57.217Z,72.95
2018-05-18T21:37:26.283Z,73.19
2018-05-18T21:39:56.063Z,73.99
2018-05-18T21:42:24.575Z,74.19
2018-05-18T21:44:53.596Z,74.63
2018-05-18T21:47:22.598Z,75.14
2018-05-18T21:49:52.070Z,75.76
2018-05-18T21:52:21.927Z,76.18
2018-05-18T21:54:51.463Z,75.88
2018-05-18T21:57:20.223Z,75.99
2018-05-18T21:59:49.460Z,76.38
2018-05-18T22:02:19.020Z,76.43
2018-05-18T22:04:49.055Z,76.67
2018-05-18T22:07:17.726Z,76.66
2018-05-18T22:09:47.375Z,76.72
2018-05-18T22:12:16.065Z,77.11
2018-05-18T22:14:45.599Z,77.66
2018-05-18T22:17:15.681Z,78.33
2018-05-18T22:19:44.931Z,78.31
2018-05-18T22:22:13.680Z,78.54
2018-05-18T22:24:42.313Z,78.61
2018-05-18T22:27:11.009Z,78.47
2018-05-18T22:29:40.025Z,78.11
2018-05-18T22:32:08.939Z,77.61
2018-05-18T22:34:38.162Z,77.29
2018-05-18T22:37:07.983Z,77.61
2018-05-18T22:39:36.900Z,77.87
2018-05-18T22:42:05.494Z,77.94
2018-05-18T22:44:34.354Z,78.08
2018-05-18T22:47:03.451Z,78.15
2018-05-18T22:49:32.470Z,78.26
2018-05-18T22:52:02.335Z,78.42
2018-05-18T22:54:30.977Z,78.91
2018-05-18T22:57:00.463Z,79.20
2018-05-18T22:59:29.499Z,79.28
2018-05-18T23:01:59.071Z,79.51
2018-05-18T23:04:27.879Z,80.80
2018-05-18T23:06:57.181Z,80.61
2018-05-18T23:09:25.896Z,81.29
2018-05-18T23:11:55.112Z,81.29
2018-05-18T23:14:23.814Z,81.54
2018-05-18T23:16:52.845Z,81.77
2018-05-18T23:19:21.859Z,81.69
2018-05-18T23:21:51.140Z,81.31
2018-05-18T23:24:20.543Z,80.86
2018-05-18T23:26:49.093Z,80.80
2018-05-18T23:29:17.787Z,80.67
2018-05-18T23:31:46.523Z,80.91
2018-05-18T23:34:15.148Z,81.10
2018-05-18T23:36:43.879Z,81.43
2018-05-18T23:39:12.688Z,81.39
2018-05-18T23:41:41.335Z,81.56
2018-05-18T23:44:10.174Z,81.61
2018-05-18T23:46:38.672Z,81.83
2018-05-18T23:49:07.470Z,82.03
2018-05-18T23:51:36.406Z,82.53
2018-05-18T23:54:05.761Z,82.57
2018-05-18T23:56:34.804Z,82.84
2018-05-18T23:59:04.794Z,82.96
